Time;durP1;ratioP1;P1;durP2;ratioP2;P2;SDS_P1;SDS_P2;PMS_P1;PMS_P2;Temp;Humidity;BMP_temperature;BMP_pressure;BME280_temperature;BME280_humidity;BME280_pressure;Samples;Min_cycle;Max_cycle;Signal;HPM_P1;HPM_P2
2022/12/29 00:01:44;;;;;;;9.88;0.90;;;;;;;8.70;75.83;97623.34;5006057;28;20104;-60
2022/12/29 00:04:13;;;;;;;6.63;0.98;;;;;;;8.70;74.90;97631.09;5011474;28;20146;-61
2022/12/29 00:06:42;;;;;;;9.38;1.08;;;;;;;8.68;74.67;97636.31;5010894;28;20501;-61
2022/12/29 00:09:12;;;;;;;12.48;1.25;;;;;;;8.66;75.20;97627.78;5010464;28;20050;-61
2022/12/29 00:11:39;;;;;;;7.32;1.17;;;;;;;8.67;75.48;97631.19;5007083;28;20144;-60
2022/12/29 00:16:54;;;;;;;7.10;1.30;;;;;;;8.61;74.84;97630.53;4993906;28;20463;-61
2022/12/29 00:36:16;;;;;;;9.75;1.48;;;;;;;8.60;74.70;97608.19;5073045;28;20399;-61
2022/12/29 00:44:23;;;;;;;6.97;1.25;;;;;;;8.51;74.63;97592.16;5084690;28;20110;-61
2022/12/29 00:46:50;;;;;;;9.48;2.28;;;;;;;8.43;74.77;97580.34;5071447;28;20064;-61
2022/12/29 00:49:33;;;;;;;6.35;1.10;;;;;;;8.45;75.00;97588.88;5076611;28;20147;-61
2022/12/29 00:52:05;;;;;;;7.57;1.00;;;;;;;8.45;74.17;97578.56;5073663;28;20060;-61
2022/12/29 00:54:34;;;;;;;3.42;0.73;;;;;;;8.46;75.25;97576.81;5081483;27;20056;-61
2022/12/29 00:57:02;;;;;;;9.60;1.15;;;;;;;8.43;74.67;97590.69;5098538;28;20051;-61
2022/12/29 00:59:29;;;;;;;10.52;1.60;;;;;;;8.37;74.72;97585.72;5094944;28;20208;-61
2022/12/29 01:01:56;;;;;;;10.88;1.13;;;;;;;8.38;75.30;97592.56;5094738;28;20048;-60
2022/12/29 01:04:25;;;;;;;5.90;0.63;;;;;;;8.37;74.58;97590.88;5095002;27;20160;-60
2022/12/29 01:06:52;;;;;;;9.18;0.77;;;;;;;8.39;75.23;97589.09;5099064;27;20059;-61
2022/12/29 01:12:07;;;;;;;7.97;1.33;;;;;;;8.34;75.47;97585.81;5093185;28;20044;-61
2022/12/29 01:14:34;;;;;;;10.02;1.02;;;;;;;8.34;75.20;97585.81;5076314;27;20056;-61
2022/12/29 01:17:01;;;;;;;7.70;1.23;;;;;;;8.39;74.90;97589.09;5092157;27;20073;-61
2022/12/29 01:19:27;;;;;;;7.97;1.27;;;;;;;8.38;75.00;97596.88;5088732;28;20772;-62
2022/12/29 01:21:54;;;;;;;8.00;1.25;;;;;;;8.36;74.69;97594.34;5079864;28;20060;-61
2022/12/29 01:24:21;;;;;;;10.38;1.30;;;;;;;8.32;74.45;97603.09;5080192;28;20558;-61
2022/12/29 01:26:48;;;;;;;8.02;1.27;;;;;;;8.37;74.99;97601.19;5095400;28;20051;-61
2022/12/29 01:29:16;;;;;;;4.45;2.88;;;;;;;8.40;74.45;97611.41;5085267;28;20052;-61
2022/12/29 01:31:43;;;;;;;8.43;1.13;;;;;;;8.39;75.10;97614.91;5086738;28;20845;-62
2022/12/29 01:34:10;;;;;;;8.05;0.93;;;;;;;8.42;74.22;97614.78;5085483;28;20079;-61
2022/12/29 01:36:37;;;;;;;13.13;1.27;;;;;;;8.45;74.61;97619.81;5076383;28;20663;-61
2022/12/29 01:39:03;;;;;;;8.35;1.92;;;;;;;8.44;74.41;97625.88;5065064;28;20048;-61
2022/12/29 01:41:31;;;;;;;6.95;1.10;;;;;;;8.38;74.42;97617.53;5087041;28;20174;-61
2022/12/29 01:44:00;;;;;;;6.32;1.80;;;;;;;8.42;73.96;97616.53;5084883;28;20048;-61
2022/12/29 01:49:15;;;;;;;7.10;1.05;;;;;;;8.44;73.86;97627.66;5099373;27;20904;-60
2022/12/29 01:51:57;;;;;;;10.07;1.50;;;;;;;8.42;73.98;97625.13;5099213;28;20131;-62
2022/12/29 01:54:38;;;;;;;9.00;1.25;;;;;;;8.47;73.88;97625.78;5097778;28;20402;-61
2022/12/29 01:57:10;;;;;;;11.70;1.02;;;;;;;8.47;74.29;97625.78;5097261;28;20256;-61
2022/12/29 01:59:43;;;;;;;10.63;1.30;;;;;;;8.48;73.92;97627.47;5099982;27;20044;-61
2022/12/29 02:02:10;;;;;;;8.15;0.95;;;;;;;8.45;74.28;97624.16;5099744;28;20040;-60
2022/12/29 02:04:44;;;;;;;9.02;1.10;;;;;;;8.47;74.35;97633.53;5099571;28;20386;-61
2022/12/29 02:07:20;;;;;;;9.48;1.42;;;;;;;8.41;73.84;97633.72;5096584;28;20055;-60
2022/12/29 02:09:50;;;;;;;6.38;0.90;;;;;;;8.45;73.98;97630.16;5100369;28;20487;-61
2022/12/29 02:12:19;;;;;;;11.45;1.27;;;;;;;8.48;73.72;97634.38;5100585;28;20077;-62
2022/12/29 02:14:48;;;;;;;4.20;2.50;;;;;;;8.42;73.36;97630.28;5099752;28;20836;-61
2022/12/29 02:17:38;;;;;;;7.00;1.05;;;;;;;8.43;73.46;97611.31;5099801;28;20075;-61
2022/12/29 02:23:09;;;;;;;6.68;1.10;;;;;;;8.42;73.17;97611.38;5023375;28;21124;-61
2022/12/29 02:34:00;;;;;;;8.95;1.30;;;;;;;8.25;75.53;97601.59;5046517;28;20720;-61
2022/12/29 02:36:44;;;;;;;11.63;1.55;;;;;;;8.23;75.00;97581.88;4995132;28;20108;-61
2022/12/29 02:39:22;;;;;;;8.48;1.35;;;;;;;8.20;76.19;97584.53;4998011;28;20136;-60
2022/12/29 02:42:28;;;;;;;7.50;1.10;;;;;;;8.17;75.36;97588.97;4997291;28;20042;-61
2022/12/29 02:45:03;;;;;;;12.45;1.58;;;;;;;8.18;76.01;97585.50;4998003;28;20097;-61
2022/12/29 02:52:52;;;;;;;6.13;1.42;;;;;;;8.19;75.43;97577.72;5038235;27;20414;-60
2022/12/29 02:55:19;;;;;;;7.45;0.68;;;;;;;8.15;75.84;97581.28;5017116;28;20267;-60
2022/12/29 02:57:46;;;;;;;8.52;0.88;;;;;;;8.18;76.64;97580.34;5017098;28;20045;-60
2022/12/29 03:00:15;;;;;;;8.43;0.88;;;;;;;8.13;76.65;97583.06;5015617;28;20050;-60
2022/12/29 03:03:03;;;;;;;6.40;0.70;;;;;;;8.11;76.73;97579.69;5015511;28;20049;-60
2022/12/29 03:19:14;;;;;;;10.50;1.73;;;;;;;8.06;77.29;97589.28;5046453;27;20755;-60
2022/12/29 03:24:21;;;;;;;14.30;1.23;;;;;;;8.00;78.05;97597.25;5041151;28;20909;-60
2022/12/29 03:26:52;;;;;;;6.63;0.73;;;;;;;8.04;77.65;97609.16;5041335;28;20049;-60
2022/12/29 03:29:20;;;;;;;9.15;2.38;;;;;;;8.03;78.02;97602.28;5051549;28;20041;-60
2022/12/29 03:31:49;;;;;;;8.68;2.35;;;;;;;8.02;78.09;97610.91;5053709;28;20136;-60
2022/12/29 03:34:20;;;;;;;5.15;1.00;;;;;;;8.01;78.35;97615.25;5060733;28;20140;-60
2022/12/29 03:36:53;;;;;;;5.28;2.25;;;;;;;7.93;78.83;97612.91;5051565;28;20603;-60
2022/12/29 03:39:23;;;;;;;8.43;2.40;;;;;;;7.98;77.32;97626.47;5054169;28;21503;-60
2022/12/29 03:41:56;;;;;;;5.82;0.95;;;;;;;8.01;77.89;97622.13;5056462;28;20083;-60
2022/12/29 03:44:32;;;;;;;8.50;2.15;;;;;;;7.99;78.10;97627.31;5057237;28;20114;-60
2022/12/29 03:46:59;;;;;;;5.97;1.35;;;;;;;7.98;78.52;97631.63;5054958;28;20045;-60
2022/12/29 03:49:25;;;;;;;7.10;0.95;;;;;;;7.96;78.96;97628.28;5057427;28;20479;-60
2022/12/29 03:51:52;;;;;;;8.38;1.88;;;;;;;7.98;78.73;97631.63;5056887;28;20153;-60
2022/12/29 03:54:19;;;;;;;5.55;0.70;;;;;;;7.95;78.18;97625.72;5055613;28;20080;-60
2022/12/29 03:56:45;;;;;;;3.65;0.75;;;;;;;7.97;79.34;97634.25;5052510;28;20078;-60
2022/12/29 03:59:12;;;;;;;9.27;2.85;;;;;;;7.98;78.41;97641.94;5049666;28;20067;-60
2022/12/29 04:01:38;;;;;;;6.60;2.08;;;;;;;7.97;79.26;97655.72;5049401;28;20056;-60
2022/12/29 04:04:05;;;;;;;8.18;1.83;;;;;;;7.98;78.68;97667.72;5048852;28;20132;-60
2022/12/29 04:06:32;;;;;;;3.92;2.20;;;;;;;7.97;79.28;97675.50;5050363;28;20079;-60
2022/12/29 04:08:58;;;;;;;7.80;2.30;;;;;;;7.97;79.65;97681.50;5052096;28;20092;-60
2022/12/29 04:11:25;;;;;;;8.15;1.55;;;;;;;7.97;79.18;97698.69;5049168;28;20057;-60
2022/12/29 04:13:58;;;;;;;2.97;1.83;;;;;;;7.96;78.88;97704.75;5054504;28;20103;-61
2022/12/29 04:16:25;;;;;;;3.55;0.82;;;;;;;7.96;79.54;97705.59;5047448;28;20045;-60
2022/12/29 04:18:51;;;;;;;6.85;0.80;;;;;;;7.92;79.01;97719.47;5056335;28;20578;-60
2022/12/29 04:21:18;;;;;;;5.97;2.25;;;;;;;7.89;79.42;97721.28;5057732;28;20076;-60
2022/12/29 04:23:44;;;;;;;1.80;1.48;;;;;;;7.89;79.26;97729.88;5054347;28;20040;-60
2022/12/29 04:26:11;;;;;;;3.47;1.35;;;;;;;7.84;78.90;97736.91;5049433;28;20446;-60
2022/12/29 04:28:38;;;;;;;1.67;1.55;;;;;;;7.79;78.07;97749.91;5050424;28;20037;-60
2022/12/29 04:31:05;;;;;;;5.22;1.55;;;;;;;7.72;78.44;97758.69;5053731;28;20056;-61
2022/12/29 04:33:32;;;;;;;4.18;1.20;;;;;;;7.68;78.65;97755.38;5048900;28;20041;-60
2022/12/29 04:35:59;;;;;;;3.33;0.70;;;;;;;7.64;78.04;97755.50;5038828;28;20056;-60
2022/12/29 04:38:26;;;;;;;3.35;0.30;;;;;;;7.58;78.55;97765.09;5037014;28;20091;-60
2022/12/29 04:40:52;;;;;;;4.57;2.33;;;;;;;7.51;78.07;97760.97;5037761;28;20041;-61
2022/12/29 04:43:19;;;;;;;1.95;1.75;;;;;;;7.51;77.13;97765.28;5040323;28;20045;-60
2022/12/29 04:45:46;;;;;;;3.20;1.42;;;;;;;7.45;78.59;97772.28;5038240;28;20041;-60
2022/12/29 04:48:14;;;;;;;1.50;1.40;;;;;;;7.39;78.48;97772.44;5039550;28;20068;-60
2022/12/29 04:50:41;;;;;;;1.63;1.52;;;;;;;7.33;77.06;97788.91;5042117;28;20098;-60
2022/12/29 04:53:08;;;;;;;2.30;1.20;;;;;;;7.25;77.96;97790.84;5037571;28;20099;-60
2022/12/29 04:55:34;;;;;;;1.92;1.60;;;;;;;7.25;78.16;97795.13;5037710;28;20606;-61
2022/12/29 04:58:01;;;;;;;1.50;1.35;;;;;;;7.25;76.75;97800.28;5035833;28;20042;-60
2022/12/29 05:00:27;;;;;;;1.55;1.38;;;;;;;7.21;77.80;97804.69;5039568;28;20506;-61
2022/12/29 05:02:54;;;;;;;2.55;1.70;;;;;;;7.16;77.10;97807.34;5039978;28;20045;-60
2022/12/29 05:05:21;;;;;;;2.63;2.17;;;;;;;7.14;76.65;97806.56;5043217;28;20037;-60
2022/12/29 05:07:47;;;;;;;2.45;1.42;;;;;;;7.11;77.18;97811.78;5039097;28;20565;-60
2022/12/29 05:10:14;;;;;;;2.75;1.45;;;;;;;7.09;77.81;97826.41;5040427;28;20738;-61
2022/12/29 05:12:41;;;;;;;2.20;1.60;;;;;;;7.06;77.23;97832.47;5040347;28;20128;-61
2022/12/29 05:15:10;;;;;;;1.80;1.52;;;;;;;7.06;76.86;97844.53;5038051;28;20103;-61
2022/12/29 05:17:36;;;;;;;1.50;1.40;;;;;;;7.02;77.27;97855.75;5040749;28;20570;-60
2022/12/29 05:20:05;;;;;;;1.17;1.15;;;;;;;7.04;77.46;97859.16;5039522;28;20049;-60
2022/12/29 05:22:31;;;;;;;1.83;1.73;;;;;;;7.01;77.67;97869.50;5037751;28;20100;-60
2022/12/29 05:24:58;;;;;;;0.50;0.28;;;;;;;6.99;78.09;97871.28;5038435;28;20451;-61
2022/12/29 05:27:25;;;;;;;3.22;2.92;;;;;;;6.97;78.18;97871.31;5039426;28;20114;-61
2022/12/29 05:29:52;;;;;;;1.27;1.27;;;;;;;6.94;76.76;97874.81;5043260;28;20044;-60
2022/12/29 05:32:19;;;;;;;1.55;0.10;;;;;;;6.94;77.57;97885.09;5041626;28;20369;-60
2022/12/29 05:34:45;;;;;;;2.45;0.95;;;;;;;6.89;77.36;97886.91;5038554;28;20069;-60
2022/12/29 05:37:12;;;;;;;2.33;2.22;;;;;;;6.91;77.77;97887.75;5038656;28;20132;-61
2022/12/29 05:39:39;;;;;;;1.85;1.00;;;;;;;6.90;76.88;97901.50;5040975;28;20057;-60
2022/12/29 05:42:06;;;;;;;3.25;1.58;;;;;;;6.88;77.67;97903.25;5037788;28;20124;-60
2022/12/29 05:44:33;;;;;;;2.72;1.35;;;;;;;6.89;76.90;97897.22;5031682;28;20527;-60
2022/12/29 05:46:59;;;;;;;1.95;0.20;;;;;;;6.85;77.91;97905.88;5035793;28;20069;-61
2022/12/29 05:49:26;;;;;;;2.47;2.20;;;;;;;6.82;78.60;97916.25;5037668;28;20056;-60
2022/12/29 05:51:53;;;;;;;2.15;2.05;;;;;;;6.80;77.98;97923.16;5037450;28;20573;-60
2022/12/29 05:54:19;;;;;;;1.73;1.63;;;;;;;6.83;77.18;97933.41;5039381;28;20084;-61
2022/12/29 05:56:46;;;;;;;4.68;1.67;;;;;;;6.80;77.77;97933.47;5039057;28;20099;-61
2022/12/29 05:59:12;;;;;;;2.78;1.40;;;;;;;6.79;78.67;97931.78;5035133;28;20091;-61
2022/12/29 06:01:39;;;;;;;1.70;1.60;;;;;;;6.75;77.48;97941.25;5040481;28;20495;-60
2022/12/29 06:04:06;;;;;;;4.50;1.67;;;;;;;6.77;78.78;97938.66;5039276;28;20041;-61
2022/12/29 06:06:32;;;;;;;1.95;1.80;;;;;;;6.75;77.94;97953.31;5040842;28;20082;-60
2022/12/29 06:08:59;;;;;;;1.75;1.65;;;;;;;6.72;78.40;97951.63;5034250;28;20072;-60
2022/12/29 06:11:26;;;;;;;1.77;1.60;;;;;;;6.74;78.39;97964.44;5035510;28;20119;-60
2022/12/29 06:13:52;;;;;;;2.70;1.85;;;;;;;6.75;78.32;97972.13;5039606;28;20072;-60
2022/12/29 06:16:19;;;;;;;1.30;1.17;;;;;;;6.76;78.17;97973.00;5037618;28;20099;-60
2022/12/29 06:18:46;;;;;;;5.90;1.20;;;;;;;6.76;77.21;97970.44;5039705;28;20061;-60
2022/12/29 06:21:12;;;;;;;1.08;0.20;;;;;;;6.68;77.59;97976.56;5034883;28;20144;-60
2022/12/29 06:23:39;;;;;;;1.38;1.38;;;;;;;6.72;77.34;97991.94;5036986;28;20048;-60
2022/12/29 06:26:06;;;;;;;1.67;1.10;;;;;;;6.71;78.23;97992.81;5033034;28;20084;-60
2022/12/29 06:28:32;;;;;;;1.27;1.27;;;;;;;6.71;77.47;98005.66;5037959;28;20094;-60
2022/12/29 06:30:59;;;;;;;1.50;1.35;;;;;;;6.67;78.84;98021.19;5032917;28;20063;-61
2022/12/29 06:33:26;;;;;;;1.77;1.60;;;;;;;6.65;79.00;98022.94;5038656;28;20124;-60
2022/12/29 06:35:52;;;;;;;3.42;1.27;;;;;;;6.67;78.68;98021.19;5038703;28;20077;-60
2022/12/29 06:38:19;;;;;;;4.22;2.00;;;;;;;6.67;78.88;98033.19;5035855;28;20083;-60
2022/12/29 06:40:45;;;;;;;5.53;1.48;;;;;;;6.64;77.93;98034.09;5040069;28;20049;-60
2022/12/29 06:43:12;;;;;;;2.70;1.60;;;;;;;6.60;79.11;98045.34;5039385;28;20045;-60
2022/12/29 06:45:40;;;;;;;3.38;1.40;;;;;;;6.60;79.04;98047.91;5041418;28;20147;-61
2022/12/29 06:48:07;;;;;;;1.55;1.45;;;;;;;6.60;77.69;98049.63;5038441;28;20049;-60
2022/12/29 06:50:34;;;;;;;3.00;1.40;;;;;;;6.58;77.73;98057.38;5039988;28;20057;-60
2022/12/29 06:53:01;;;;;;;1.40;1.33;;;;;;;6.55;78.16;98058.28;5040154;28;20053;-60
2022/12/29 06:55:28;;;;;;;1.77;1.40;;;;;;;6.57;78.56;98060.81;5038177;28;20106;-60
2022/12/29 06:57:56;;;;;;;3.70;2.05;;;;;;;6.54;78.76;98066.00;5037998;28;20048;-61
2022/12/29 07:00:24;;;;;;;3.35;2.70;;;;;;;6.53;78.11;98079.75;5036441;28;20053;-60
2022/12/29 07:02:51;;;;;;;3.05;1.50;;;;;;;6.54;77.90;98077.16;5040783;28;20143;-60
2022/12/29 07:05:18;;;;;;;1.75;1.58;;;;;;;6.51;78.54;98076.34;5036983;28;20106;-60
2022/12/29 07:07:44;;;;;;;1.70;1.60;;;;;;;6.53;78.87;98084.91;5036259;28;20080;-60
2022/12/29 07:10:11;;;;;;;1.92;1.80;;;;;;;6.53;78.13;98074.63;5034053;28;20146;-60
2022/12/29 07:12:37;;;;;;;2.50;2.30;;;;;;;6.53;78.84;98084.91;5037124;28;20049;-60
2022/12/29 07:15:04;;;;;;;3.45;1.00;;;;;;;6.48;77.89;98071.28;5037461;28;20039;-61
2022/12/29 07:17:31;;;;;;;1.88;1.52;;;;;;;6.47;78.04;98077.28;5032753;28;20056;-60
2022/12/29 07:19:57;;;;;;;2.53;2.00;;;;;;;6.51;78.13;98086.63;5034203;28;20155;-60
2022/12/29 07:22:24;;;;;;;3.95;1.75;;;;;;;6.49;78.74;98099.53;5035043;28;20077;-60
2022/12/29 07:24:51;;;;;;;1.88;1.52;;;;;;;6.51;78.44;98102.06;5033821;28;20714;-61
2022/12/29 07:27:17;;;;;;;2.30;1.58;;;;;;;6.48;77.83;98102.16;5038258;28;20564;-61
2022/12/29 07:29:44;;;;;;;1.38;1.27;;;;;;;6.47;78.26;98113.28;5037051;28;20052;-60
2022/12/29 07:32:10;;;;;;;3.45;2.58;;;;;;;6.45;77.86;98126.16;5040370;28;20489;-61
2022/12/29 07:34:39;;;;;;;4.05;2.03;;;;;;;6.47;77.96;98129.59;5037026;28;20045;-61
2022/12/29 07:37:05;;;;;;;4.85;1.38;;;;;;;6.46;77.92;98145.03;5034278;28;20463;-60
2022/12/29 07:39:32;;;;;;;2.13;1.73;;;;;;;6.44;78.24;98147.63;5037474;28;20144;-60
2022/12/29 07:41:59;;;;;;;3.30;1.35;;;;;;;6.45;78.11;98148.50;5038605;28;20090;-61
2022/12/29 07:44:30;;;;;;;2.65;2.45;;;;;;;6.42;77.79;98144.25;5034903;28;20099;-60
2022/12/29 07:46:57;;;;;;;3.92;2.70;;;;;;;6.43;78.54;98157.06;5037923;28;20086;-61
2022/12/29 07:49:24;;;;;;;6.50;2.85;;;;;;;6.40;77.49;98171.69;5039217;28;21573;-61
2022/12/29 07:51:51;;;;;;;4.65;2.83;;;;;;;6.42;76.87;98151.97;5033341;28;20083;-61
2022/12/29 07:54:18;;;;;;;3.95;3.08;;;;;;;6.42;78.14;98157.94;5039368;28;20489;-60
2022/12/29 07:56:45;;;;;;;7.60;4.95;;;;;;;6.41;78.02;98168.25;5034625;28;20040;-60
2022/12/29 07:59:11;;;;;;;2.53;2.25;;;;;;;6.38;77.55;98158.88;5038605;28;20105;-60
2022/12/29 08:01:38;;;;;;;5.07;2.58;;;;;;;6.39;77.96;98150.28;5030968;28;20128;-61
2022/12/29 08:04:05;;;;;;;4.15;2.65;;;;;;;6.37;77.17;98152.03;5034512;28;20056;-61
2022/12/29 08:06:32;;;;;;;3.45;2.40;;;;;;;6.39;77.57;98163.13;5037334;28;20132;-60
2022/12/29 08:09:00;;;;;;;9.20;2.55;;;;;;;6.37;77.60;98171.75;5031306;28;20053;-60
2022/12/29 08:11:38;;;;;;;2.85;1.20;;;;;;;6.38;76.67;98173.47;5044632;28;20539;-60
2022/12/29 08:14:04;;;;;;;2.85;1.58;;;;;;;6.38;77.25;98179.44;5043732;28;20065;-60
2022/12/29 08:16:32;;;;;;;5.82;1.55;;;;;;;6.34;78.05;98192.34;5045808;28;20053;-60
2022/12/29 08:18:59;;;;;;;2.38;0.52;;;;;;;6.33;77.63;98196.66;5034572;28;20049;-61
2022/12/29 08:21:27;;;;;;;3.45;1.80;;;;;;;6.39;77.64;98201.69;5044580;28;20139;-60
2022/12/29 08:23:54;;;;;;;2.22;2.05;;;;;;;6.38;77.58;98207.72;5044330;28;20137;-61
2022/12/29 08:26:20;;;;;;;2.70;1.58;;;;;;;6.38;78.43;98210.28;5036560;28;20048;-60
2022/12/29 08:28:47;;;;;;;2.85;2.40;;;;;;;6.45;78.08;98212.78;5037483;28;20134;-60
2022/12/29 08:31:14;;;;;;;4.85;2.45;;;;;;;6.46;76.94;98217.03;5041909;28;20076;-60
2022/12/29 08:33:40;;;;;;;3.42;1.85;;;;;;;6.48;76.63;98218.72;5034312;28;20052;-60
2022/12/29 08:36:08;;;;;;;2.40;1.65;;;;;;;6.65;77.32;98239.03;5040209;28;20056;-60
2022/12/29 08:38:34;;;;;;;1.50;1.40;;;;;;;6.84;77.85;98233.59;5034739;28;20131;-60
2022/12/29 08:41:01;;;;;;;2.28;1.67;;;;;;;7.24;77.72;98239.78;5033026;28;20500;-61
2022/12/29 08:43:28;;;;;;;3.03;1.80;;;;;;;7.65;76.45;98247.59;5031989;28;20098;-60
2022/12/29 08:45:55;;;;;;;1.77;1.67;;;;;;;8.10;76.21;98258.69;5030016;28;20130;-61
2022/12/29 08:48:22;;;;;;;1.77;0.30;;;;;;;8.49;75.73;98258.69;5039940;28;20762;-60
2022/12/29 08:50:50;;;;;;;3.60;1.77;;;;;;;8.77;74.50;98269.28;5040847;28;20049;-60
2022/12/29 08:53:17;;;;;;;2.25;2.05;;;;;;;8.97;73.98;98272.22;5028364;28;20057;-60
2022/12/29 08:55:46;;;;;;;3.10;1.65;;;;;;;9.21;73.52;98276.81;5036851;28;20127;-60
2022/12/29 08:58:14;;;;;;;3.22;1.50;;;;;;;9.10;72.88;98274.50;5037534;28;20165;-61
2022/12/29 09:00:42;;;;;;;2.70;0.22;;;;;;;9.06;73.08;98275.47;5040714;28;20127;-61
2022/12/29 09:03:08;;;;;;;3.40;0.50;;;;;;;8.92;72.53;98278.41;5033448;28;20075;-61
2022/12/29 09:05:36;;;;;;;1.55;0.35;;;;;;;8.76;71.78;98277.91;5042218;28;20052;-61
2022/12/29 09:08:04;;;;;;;1.65;0.32;;;;;;;8.91;72.92;98277.53;5041177;28;20500;-61
2022/12/29 09:10:31;;;;;;;4.65;2.65;;;;;;;8.95;72.64;98274.00;5038513;28;20099;-61
2022/12/29 09:12:57;;;;;;;2.45;1.95;;;;;;;8.77;71.79;98269.28;5036846;28;20040;-61
2022/12/29 09:15:24;;;;;;;6.18;2.25;;;;;;;8.56;72.64;98271.47;5039057;28;20045;-61
2022/12/29 09:17:51;;;;;;;7.78;1.02;;;;;;;8.40;72.74;98287.28;5039501;28;20041;-61
2022/12/29 09:20:19;;;;;;;12.80;3.95;;;;;;;8.31;73.28;98292.66;5034757;28;20567;-61
2022/12/29 09:22:47;;;;;;;16.80;5.88;;;;;;;8.21;73.17;98290.25;5033455;28;20052;-60
2022/12/29 09:25:13;;;;;;;7.85;2.92;;;;;;;8.37;73.07;98295.09;5038640;28;20048;-60
2022/12/29 09:27:40;;;;;;;6.57;2.17;;;;;;;8.56;73.18;98295.56;5034100;28;20543;-60
2022/12/29 09:30:10;;;;;;;4.43;1.60;;;;;;;8.71;72.73;98302.09;5039486;28;20102;-61
2022/12/29 09:32:37;;;;;;;2.30;2.05;;;;;;;8.64;72.45;98310.03;5043339;28;20056;-60
2022/12/29 09:35:10;;;;;;;3.90;0.50;;;;;;;8.48;72.50;98310.34;5043025;28;20045;-60
2022/12/29 09:37:37;;;;;;;4.28;2.03;;;;;;;8.53;73.21;98323.13;5038726;28;20648;-61
2022/12/29 09:40:04;;;;;;;3.63;0.68;;;;;;;8.95;73.44;98323.06;5034348;28;20048;-62
2022/12/29 09:42:38;;;;;;;2.35;1.73;;;;;;;9.34;72.66;98334.19;5041764;28;20099;-61
2022/12/29 09:47:46;;;;;;;5.10;1.50;;;;;;;11.02;72.34;98331.19;5020949;27;20799;-60
2022/12/29 09:55:39;;;;;;;5.53;1.15;;;;;;;12.94;66.63;98342.59;5057633;27;20389;-62
2022/12/29 09:58:13;;;;;;;5.75;1.30;;;;;;;13.51;67.68;98349.81;5031627;28;20064;-61
2022/12/29 10:03:40;;;;;;;4.75;0.85;;;;;;;14.63;65.11;98363.13;5042635;28;20388;-62
2022/12/29 10:12:23;;;;;;;6.47;1.90;;;;;;;16.00;61.32;98373.09;5098843;27;20380;-61
2022/12/29 10:25:28;;;;;;;4.20;2.25;;;;;;;17.33;56.42;98390.38;5095628;27;20384;-62
2022/12/29 10:28:05;;;;;;;3.55;1.75;;;;;;;17.34;54.77;98394.69;5050044;28;20048;-62
2022/12/29 10:30:34;;;;;;;5.55;2.58;;;;;;;17.44;54.94;98395.00;5083469;28;20508;-61
2022/12/29 10:33:06;;;;;;;3.05;2.30;;;;;;;17.61;54.50;98407.09;5083412;28;20044;-60
2022/12/29 10:35:37;;;;;;;5.55;2.15;;;;;;;17.64;54.16;98409.56;5081827;28;20094;-60
2022/12/29 10:46:08;;;;;;;4.10;1.27;;;;;;;16.86;52.78;98405.19;5037295;28;20399;-60
2022/12/29 10:48:35;;;;;;;5.05;1.23;;;;;;;16.25;51.94;98395.34;5020648;28;20100;-60
2022/12/29 10:51:05;;;;;;;2.42;1.05;;;;;;;15.60;52.85;98402.09;5021623;28;20104;-60
2022/12/29 10:56:25;;;;;;;4.30;1.10;;;;;;;14.48;54.90;98411.59;5070957;27;20916;-62
2022/12/29 10:58:56;;;;;;;5.80;1.83;;;;;;;14.10;56.09;98409.78;5072798;28;20052;-61
2022/12/29 11:01:34;;;;;;;5.05;0.68;;;;;;;13.75;55.44;98406.94;5081443;28;20040;-61
2022/12/29 11:04:29;;;;;;;4.25;1.00;;;;;;;13.39;55.68;98412.72;5076171;28;20052;-62
2022/12/29 11:06:57;;;;;;;4.15;0.77;;;;;;;13.13;57.34;98409.44;5056665;28;20075;-62
2022/12/29 11:09:28;;;;;;;1.77;0.90;;;;;;;12.83;57.70;98418.34;5059557;28;20052;-61
2022/12/29 11:12:27;;;;;;;3.67;1.42;;;;;;;12.54;58.18;98418.56;5064766;28;20485;-61
2022/12/29 11:17:49;;;;;;;1.90;0.52;;;;;;;12.34;60.48;98422.69;5019594;27;20911;-61
2022/12/29 11:20:37;;;;;;;3.75;1.50;;;;;;;12.16;60.13;98418.19;4999188;28;20112;-61
2022/12/29 11:23:20;;;;;;;1.73;1.38;;;;;;;12.03;60.06;98430.72;5001660;28;20054;-62
2022/12/29 11:26:06;;;;;;;3.00;1.88;;;;;;;11.82;59.83;98425.34;5004111;28;20078;-61
2022/12/29 11:28:33;;;;;;;3.25;1.58;;;;;;;11.64;60.26;98422.50;4995870;28;20101;-62
2022/12/29 11:31:02;;;;;;;3.10;1.65;;;;;;;11.53;61.62;98429.78;4999712;28;20050;-61
2022/12/29 11:33:30;;;;;;;4.03;0.82;;;;;;;11.21;60.40;98429.91;5001357;28;20468;-61
2022/12/29 11:36:01;;;;;;;1.70;0.80;;;;;;;11.13;61.73;98426.72;4999622;28;20446;-61
2022/12/29 11:38:39;;;;;;;3.05;1.13;;;;;;;11.06;61.92;98441.59;4999677;28;20057;-61
2022/12/29 11:41:09;;;;;;;4.30;1.65;;;;;;;11.00;62.88;98436.59;5001098;28;20050;-62
2022/12/29 11:43:40;;;;;;;4.10;1.50;;;;;;;10.96;63.10;98435.00;4999961;28;20058;-61
2022/12/29 11:46:16;;;;;;;4.60;1.92;;;;;;;10.82;62.20;98438.88;5000097;28;20139;-62
2022/12/29 11:48:43;;;;;;;3.92;1.75;;;;;;;10.74;62.40;98444.25;4999890;28;20137;-61
2022/12/29 11:51:11;;;;;;;3.60;1.90;;;;;;;10.67;62.10;98450.50;5001716;28;20058;-61
2022/12/29 11:56:16;;;;;;;5.35;1.25;;;;;;;10.60;62.90;98451.59;5032162;28;20394;-61
2022/12/29 11:58:43;;;;;;;3.78;1.48;;;;;;;10.55;63.53;98454.31;5022110;28;20504;-62
2022/12/29 12:01:19;;;;;;;6.95;0.68;;;;;;;10.49;62.71;98449.28;5022091;28;20053;-62
2022/12/29 12:03:59;;;;;;;5.55;1.98;;;;;;;10.45;62.97;98461.47;5021751;28;20044;-62
2022/12/29 12:06:28;;;;;;;4.03;0.65;;;;;;;10.35;63.54;98463.44;5022175;28;20133;-63
2022/12/29 12:09:10;;;;;;;6.03;0.80;;;;;;;10.26;63.41;98455.91;5021728;28;20073;-62
2022/12/29 12:11:43;;;;;;;6.18;0.63;;;;;;;10.13;63.30;98463.16;5018176;28;20123;-62
2022/12/29 12:14:34;;;;;;;5.80;0.47;;;;;;;10.08;63.67;98463.28;5014702;28;20092;-62
2022/12/29 12:17:12;;;;;;;11.70;2.25;;;;;;;10.06;63.80;98469.41;5014224;28;20049;-61
2022/12/29 12:19:46;;;;;;;4.57;2.17;;;;;;;9.98;63.72;98470.44;5020096;28;20049;-62
2022/12/29 12:22:21;;;;;;;5.15;1.75;;;;;;;9.89;64.49;98457.72;5020836;28;20096;-62
2022/12/29 12:24:55;;;;;;;2.92;0.80;;;;;;;9.76;64.15;98465.81;5022070;28;20096;-62
2022/12/29 12:30:09;;;;;;;2.33;0.65;;;;;;;9.69;64.08;98472.00;5100434;27;20407;-63
2022/12/29 12:35:14;;;;;;;5.38;1.52;;;;;;;9.61;64.40;98464.47;5074411;27;20389;-62
2022/12/29 12:37:58;;;;;;;9.45;2.42;;;;;;;9.63;64.52;98467.00;5059129;28;20052;-62
2022/12/29 12:51:47;;;;;;;2.90;0.82;;;;;;;9.82;65.36;98466.53;5051580;28;20388;-62
2022/12/29 12:54:34;;;;;;;7.82;0.50;;;;;;;9.82;65.30;98466.53;5008006;28;20103;-62
2022/12/29 12:59:52;;;;;;;7.82;2.20;;;;;;;9.77;65.75;98470.09;5104071;27;20389;-61
2022/12/29 13:30:23;;;;;;;6.05;1.50;;;;;;;9.43;65.79;98490.75;5133566;27;20745;-63
2022/12/29 13:38:33;;;;;;;9.85;2.35;;;;;;;9.24;65.90;98497.19;5027213;27;20398;-62
2022/12/29 13:41:07;;;;;;;8.73;2.67;;;;;;;9.26;66.33;98500.56;5021474;28;20042;-61
2022/12/29 13:43:37;;;;;;;9.43;3.45;;;;;;;9.22;66.14;98498.09;5018498;28;20065;-62
2022/12/29 13:46:12;;;;;;;5.65;2.45;;;;;;;9.20;66.06;98508.47;5020706;28;20611;-62
2022/12/29 13:51:21;;;;;;;11.43;1.75;;;;;;;9.14;66.29;98500.84;5084858;27;20373;-61
2022/12/29 13:54:05;;;;;;;13.07;1.70;;;;;;;9.09;66.22;98502.69;5050710;28;20378;-61
2022/12/29 14:02:04;;;;;;;3.63;0.68;;;;;;;9.04;66.01;98525.16;4998806;28;20941;-63
2022/12/29 14:04:34;;;;;;;5.22;0.70;;;;;;;9.00;66.30;98529.53;4964789;28;20130;-61
2022/12/29 14:07:05;;;;;;;;;;;;;;;8.90;66.27;98513.38;4964824;28;20055;-61
2022/12/29 14:12:27;;;;;;;3.72;0.60;;;;;;;8.87;65.82;98523.78;5094336;27;21069;-60
2022/12/29 14:14:54;;;;;;;2.78;1.02;;;;;;;8.87;65.41;98534.09;5057026;28;20061;-62
2022/12/29 14:17:21;;;;;;;5.28;1.67;;;;;;;8.89;65.76;98536.66;5060979;28;20394;-63
2022/12/29 14:19:53;;;;;;;6.45;1.40;;;;;;;8.85;65.89;98541.88;5056718;28;20041;-62
2022/12/29 14:22:26;;;;;;;1.90;0.40;;;;;;;8.85;66.12;98541.03;5053761;28;20045;-63
2022/12/29 14:25:00;;;;;;;6.60;1.02;;;;;;;8.87;66.11;98539.28;5061926;28;20048;-63
2022/12/29 14:30:04;;;;;;;8.68;2.50;;;;;;;8.84;66.15;98549.66;5059808;28;20387;-62
2022/12/29 14:35:43;;;;;;;11.50;2.15;;;;;;;8.68;65.67;98559.44;5033370;28;20935;-61
2022/12/29 14:38:20;;;;;;;6.32;2.50;;;;;;;8.60;66.54;98547.53;5004944;28;20042;-60
2022/12/29 14:40:48;;;;;;;6.25;0.70;;;;;;;8.60;66.57;98557.00;5006079;28;20050;-62
2022/12/29 14:43:22;;;;;;;6.20;2.38;;;;;;;8.53;66.37;98555.38;5002668;28;20038;-61
2022/12/29 14:46:00;;;;;;;5.65;1.13;;;;;;;8.44;66.42;98569.31;5006589;28;20122;-61
2022/12/29 14:48:39;;;;;;;2.63;0.68;;;;;;;8.41;66.21;98572.78;5007268;28;20046;-62